Time;durP1;ratioP1;P1;durP2;ratioP2;P2;SDS_P1;SDS_P2;PMS_P1;PMS_P2;Temp;Humidity;BMP_temperature;BMP_pressure;BME280_temperature;BME280_humidity;BME280_pressure;Samples;Min_cycle;Max_cycle;Signal;HPM_P1;HPM_P2
2023/06/23 00:01:06;;;;;;;;;;;28.00;87.10;;;;;;5095306;28;19904;-73
2023/06/23 00:03:32;;;;;;;;;;;27.90;87.20;;;;;;5095628;28;19941;-73
2023/06/23 00:06:00;;;;;;;;;;;27.90;87.30;;;;;;5095796;28;20279;-73
2023/06/23 00:08:26;;;;;;;;;;;28.00;87.20;;;;;;5095170;28;19911;-73
2023/06/23 00:10:51;;;;;;;;;;;27.90;87.80;;;;;;5095616;28;19904;-73
2023/06/23 00:13:19;;;;;;;;;;;27.80;88.00;;;;;;5076921;28;19950;-73
2023/06/23 00:15:44;;;;;;;;;;;27.80;90.10;;;;;;5093364;28;20030;-73
2023/06/23 00:18:11;;;;;;;;;;;27.70;90.80;;;;;;5094882;28;20214;-73
2023/06/23 00:20:37;;;;;;;;;;;27.40;91.10;;;;;;5094767;28;19908;-73
2023/06/23 00:23:02;;;;;;;;;;;27.30;91.10;;;;;;5095369;28;19904;-73
2023/06/23 00:25:28;;;;;;;;;;;27.20;90.90;;;;;;5095088;28;19999;-72
2023/06/23 00:27:54;;;;;;;;;;;27.10;90.70;;;;;;5094732;28;19969;-73
2023/06/23 00:30:20;;;;;;;;;;;27.10;90.60;;;;;;5094909;28;19904;-73
2023/06/23 00:32:46;;;;;;;;;;;27.10;90.70;;;;;;5095024;28;19949;-73
2023/06/23 00:35:14;;;;;;;;;;;27.10;90.40;;;;;;5094388;28;19965;-73
2023/06/23 00:37:40;;;;;;;;;;;27.10;90.60;;;;;;5094550;28;19904;-73
2023/06/23 00:40:12;;;;;;;;;;;27.20;90.30;;;;;;5095076;28;20446;-73
2023/06/23 00:42:48;;;;;;;;;;;27.30;89.30;;;;;;5094747;28;19911;-73
2023/06/23 00:45:16;;;;;;;;;;;27.40;88.60;;;;;;5094442;28;19908;-79
2023/06/23 00:47:43;;;;;;;;;;;27.50;88.60;;;;;;5094663;28;19949;-77
2023/06/23 00:50:11;;;;;;;;;;;27.50;88.70;;;;;;5109815;28;19915;-77
2023/06/23 00:52:37;;;;;;;;;;;27.50;88.80;;;;;;5094234;28;19904;-77
2023/06/23 00:55:04;;;;;;;;;;;27.50;88.80;;;;;;5075269;28;20382;-78
2023/06/23 00:57:29;;;;;;;;;;;27.50;88.90;;;;;;5094204;28;19911;-78
2023/06/23 00:59:55;;;;;;;;;;;27.40;89.00;;;;;;5094369;28;19908;-79
2023/06/23 01:02:21;;;;;;;;;;;27.40;89.20;;;;;;5094607;28;19904;-78
2023/06/23 01:04:48;;;;;;;;;;;27.40;89.80;;;;;;5093928;28;19965;-78
2023/06/23 01:07:27;;;;;;;;;;;27.40;90.50;;;;;;5093972;28;19994;-78
2023/06/23 01:10:02;;;;;;;;;;;27.30;90.70;;;;;;5094870;28;20328;-76
2023/06/23 01:12:55;;;;;;;;;;;27.20;90.70;;;;;;5094178;28;19908;-77
2023/06/23 01:15:27;;;;;;;;;;;27.20;90.60;;;;;;5075053;28;19916;-78
2023/06/23 01:17:54;;;;;;;;;;;27.20;90.40;;;;;;5094455;28;19904;-78
2023/06/23 01:20:33;;;;;;;;;;;27.20;90.40;;;;;;5093728;28;19904;-77
2023/06/23 01:23:13;;;;;;;;;;;27.30;90.40;;;;;;5075572;28;19908;-78
2023/06/23 01:25:48;;;;;;;;;;;27.20;90.50;;;;;;5092405;28;19908;-77
2023/06/23 01:28:18;;;;;;;;;;;27.20;91.20;;;;;;5093739;28;19911;-77
2023/06/23 01:30:53;;;;;;;;;;;27.10;91.40;;;;;;5093714;28;20373;-77
2023/06/23 01:33:21;;;;;;;;;;;27.10;91.40;;;;;;5092140;28;19949;-77
2023/06/23 01:35:51;;;;;;;;;;;27.10;91.40;;;;;;5075110;28;20360;-77
2023/06/23 01:38:22;;;;;;;;;;;27.10;91.20;;;;;;5093410;28;19933;-78
2023/06/23 01:40:51;;;;;;;;;;;27.00;91.10;;;;;;5093299;28;19923;-77
2023/06/23 01:43:18;;;;;;;;;;;27.10;90.70;;;;;;5093409;28;19904;-77
2023/06/23 01:45:44;;;;;;;;;;;27.10;90.00;;;;;;5093332;28;19904;-77
2023/06/23 01:48:11;;;;;;;;;;;27.30;88.70;;;;;;5075195;28;19904;-77
2023/06/23 01:50:37;;;;;;;;;;;27.60;88.10;;;;;;5093105;28;20014;-78
2023/06/23 01:53:06;;;;;;;;;;;27.70;87.80;;;;;;5093733;28;20209;-78
2023/06/23 01:55:33;;;;;;;;;;;27.70;87.60;;;;;;5093553;28;20313;-77
2023/06/23 01:58:00;;;;;;;;;;;27.80;87.30;;;;;;5093883;28;19918;-77
2023/06/23 02:00:27;;;;;;;;;;;27.80;87.30;;;;;;5093321;28;19903;-79
2023/06/23 02:02:53;;;;;;;;;;;27.70;87.50;;;;;;5093395;28;20010;-77
2023/06/23 02:05:21;;;;;;;;;;;27.70;87.30;;;;;;5076541;28;19908;-78
2023/06/23 02:07:48;;;;;;;;;;;27.60;87.30;;;;;;5093784;28;19916;-77
2023/06/23 02:10:16;;;;;;;;;;;27.60;87.60;;;;;;5093247;28;19908;-77
2023/06/23 02:12:43;;;;;;;;;;;27.60;87.50;;;;;;5093118;28;20355;-78
2023/06/23 02:15:10;;;;;;;;;;;27.50;88.50;;;;;;5093147;28;19958;-78
2023/06/23 02:17:36;;;;;;;;;;;27.50;88.40;;;;;;5075156;28;19960;-78
2023/06/23 02:20:13;;;;;;;;;;;27.40;88.20;;;;;;5075015;28;19904;-78
2023/06/23 02:22:40;;;;;;;;;;;27.40;88.90;;;;;;5075123;28;20344;-78
2023/06/23 02:25:06;;;;;;;;;;;27.40;90.10;;;;;;5093248;28;19946;-77
2023/06/23 02:27:33;;;;;;;;;;;27.30;90.20;;;;;;5093136;28;19911;-78
2023/06/23 02:30:00;;;;;;;;;;;27.20;90.30;;;;;;5093141;28;19904;-79
2023/06/23 02:32:26;;;;;;;;;;;27.10;90.30;;;;;;5091552;28;20108;-77
2023/06/23 02:34:52;;;;;;;;;;;27.10;89.90;;;;;;5091424;28;20386;-78
2023/06/23 02:37:21;;;;;;;;;;;27.20;89.20;;;;;;5074940;28;20288;-77
2023/06/23 02:39:48;;;;;;;;;;;27.20;89.10;;;;;;5092950;28;19910;-78
2023/06/23 02:42:15;;;;;;;;;;;27.20;90.00;;;;;;5093229;28;19904;-77
2023/06/23 02:44:47;;;;;;;;;;;27.20;89.90;;;;;;5092921;28;19904;-77
2023/06/23 02:47:15;;;;;;;;;;;27.20;89.30;;;;;;5092732;28;19904;-77
2023/06/23 02:49:41;;;;;;;;;;;27.20;88.90;;;;;;5092620;28;20352;-78
2023/06/23 02:52:08;;;;;;;;;;;27.20;89.00;;;;;;5093342;28;19949;-77
2023/06/23 02:54:36;;;;;;;;;;;27.20;89.10;;;;;;5092890;28;19914;-78
2023/06/23 02:57:03;;;;;;;;;;;27.10;89.20;;;;;;5092650;28;19918;-78
2023/06/23 02:59:32;;;;;;;;;;;27.10;89.30;;;;;;5092903;28;20360;-78
2023/06/23 03:01:59;;;;;;;;;;;27.10;89.30;;;;;;5091377;28;19908;-78
2023/06/23 03:04:25;;;;;;;;;;;27.20;89.20;;;;;;5074258;28;19911;-78
2023/06/23 03:06:51;;;;;;;;;;;27.20;89.00;;;;;;5074440;28;19904;-78
2023/06/23 03:09:19;;;;;;;;;;;27.20;88.90;;;;;;5092908;28;20260;-79
2023/06/23 03:11:44;;;;;;;;;;;27.30;88.80;;;;;;5092960;28;19904;-78
2023/06/23 03:14:10;;;;;;;;;;;27.30;88.90;;;;;;5092578;28;19911;-77
2023/06/23 03:16:36;;;;;;;;;;;27.30;88.90;;;;;;5092306;28;20383;-77
2023/06/23 03:19:10;;;;;;;;;;;27.20;89.30;;;;;;5094568;28;19904;-79
2023/06/23 03:21:36;;;;;;;;;;;27.20;89.60;;;;;;5078088;28;19904;-81
2023/06/23 03:24:06;;;;;;;;;;;27.20;89.60;;;;;;5096132;28;20370;-78
2023/06/23 03:26:36;;;;;;;;;;;27.20;89.70;;;;;;5095940;28;19904;-77
2023/06/23 03:29:03;;;;;;;;;;;27.20;90.20;;;;;;5096032;28;19904;-77
2023/06/23 03:31:29;;;;;;;;;;;27.30;90.40;;;;;;5096283;28;19904;-78
2023/06/23 03:33:56;;;;;;;;;;;27.20;90.40;;;;;;5098094;28;20431;-78
2023/06/23 03:36:26;;;;;;;;;;;27.20;90.50;;;;;;5111812;28;19990;-78
2023/06/23 03:38:59;;;;;;;;;;;27.30;90.50;;;;;;5077664;28;20314;-78
2023/06/23 03:41:28;;;;;;;;;;;27.30;90.40;;;;;;5095998;28;19908;-77
2023/06/23 03:43:55;;;;;;;;;;;27.30;90.40;;;;;;5095572;28;20226;-77
2023/06/23 03:46:23;;;;;;;;;;;27.40;90.60;;;;;;5095648;28;19926;-78
2023/06/23 03:48:52;;;;;;;;;;;27.30;90.70;;;;;;5095964;28;20450;-78
2023/06/23 03:51:18;;;;;;;;;;;27.20;91.20;;;;;;5094121;28;19999;-78
2023/06/23 03:53:44;;;;;;;;;;;27.30;91.00;;;;;;5096121;28;19904;-78
2023/06/23 03:56:11;;;;;;;;;;;27.30;91.10;;;;;;5095444;28;19919;-79
2023/06/23 03:58:37;;;;;;;;;;;27.40;91.10;;;;;;5094091;28;19943;-77
2023/06/23 04:01:05;;;;;;;;;;;27.40;91.10;;;;;;5095416;28;20307;-78
2023/06/23 04:03:32;;;;;;;;;;;27.50;91.20;;;;;;5095253;28;20360;-79
2023/06/23 04:05:59;;;;;;;;;;;27.50;91.30;;;;;;5095382;28;19947;-78
2023/06/23 04:08:28;;;;;;;;;;;27.50;91.40;;;;;;5077048;28;19911;-78
2023/06/23 04:10:56;;;;;;;;;;;27.50;91.60;;;;;;5077062;28;19904;-77
2023/06/23 04:13:23;;;;;;;;;;;27.60;91.30;;;;;;5095382;28;19934;-77
2023/06/23 04:15:49;;;;;;;;;;;27.60;91.30;;;;;;5094842;28;19922;-78
2023/06/23 04:18:16;;;;;;;;;;;27.70;91.30;;;;;;5095107;28;19996;-79
2023/06/23 04:20:44;;;;;;;;;;;27.80;91.20;;;;;;5094838;28;19904;-78
2023/06/23 04:23:11;;;;;;;;;;;27.90;91.30;;;;;;5095028;28;19993;-79
2023/06/23 04:25:39;;;;;;;;;;;27.90;91.40;;;;;;5094850;28;19990;-78
2023/06/23 04:28:06;;;;;;;;;;;28.00;91.20;;;;;;5094873;28;19904;-79
2023/06/23 04:30:34;;;;;;;;;;;28.00;91.00;;;;;;5094050;28;19911;-78
2023/06/23 04:33:00;;;;;;;;;;;28.10;91.10;;;;;;5094888;28;20003;-78
2023/06/23 04:35:26;;;;;;;;;;;28.30;91.10;;;;;;5094234;28;20011;-78
2023/06/23 04:38:01;;;;;;;;;;;28.30;91.10;;;;;;5094617;28;19904;-77
2023/06/23 04:40:27;;;;;;;;;;;28.30;91.10;;;;;;5094825;28;19911;-79
2023/06/23 04:42:56;;;;;;;;;;;28.50;91.00;;;;;;5092946;28;20333;-77
2023/06/23 04:45:25;;;;;;;;;;;28.50;91.10;;;;;;5094179;28;19904;-78
2023/06/23 04:47:53;;;;;;;;;;;28.70;91.00;;;;;;5094348;28;19944;-78
2023/06/23 04:50:20;;;;;;;;;;;28.90;90.80;;;;;;5094393;28;19949;-78
2023/06/23 04:52:50;;;;;;;;;;;28.90;91.10;;;;;;5076092;28;19904;-78
2023/06/23 04:55:17;;;;;;;;;;;29.30;91.00;;;;;;5094279;28;19916;-77
2023/06/23 04:57:44;;;;;;;;;;;29.70;90.70;;;;;;5076027;28;19904;-77
2023/06/23 05:00:12;;;;;;;;;;;29.90;90.20;;;;;;5094822;28;20271;-78
2023/06/23 05:02:38;;;;;;;;;;;30.40;90.10;;;;;;5096138;28;19911;-78
2023/06/23 05:05:05;;;;;;;;;;;31.00;89.30;;;;;;5094870;28;19912;-78
2023/06/23 05:07:32;;;;;;;;;;;31.50;88.40;;;;;;5095555;28;19904;-78
2023/06/23 05:09:58;;;;;;;;;;;32.40;86.50;;;;;;5075858;28;19953;-77
2023/06/23 05:12:25;;;;;;;;;;;32.80;85.20;;;;;;5094056;28;19904;-78
2023/06/23 05:14:51;;;;;;;;;;;33.20;84.40;;;;;;5093518;28;19916;-77
2023/06/23 05:17:18;;;;;;;;;;;34.00;84.10;;;;;;5093841;28;19912;-78
2023/06/23 05:19:46;;;;;;;;;;;34.70;83.20;;;;;;5093313;28;19911;-77
2023/06/23 05:22:13;;;;;;;;;;;35.00;82.10;;;;;;5093638;28;19904;-78
2023/06/23 05:24:42;;;;;;;;;;;35.30;81.50;;;;;;5093531;28;19911;-79
2023/06/23 05:27:09;;;;;;;;;;;36.10;80.80;;;;;;5093299;28;19904;-77
2023/06/23 05:29:54;;;;;;;;;;;35.90;80.30;;;;;;5093581;28;19924;-77
2023/06/23 05:32:22;;;;;;;;;;;36.50;79.70;;;;;;5094676;28;20373;-78
2023/06/23 05:34:49;;;;;;;;;;;37.00;79.80;;;;;;5092927;28;20348;-77
2023/06/23 05:37:17;;;;;;;;;;;37.30;77.90;;;;;;5075704;28;20488;-77
2023/06/23 05:39:43;;;;;;;;;;;37.30;76.00;;;;;;5092973;28;19903;-78
2023/06/23 05:42:10;;;;;;;;;;;37.30;75.60;;;;;;5092576;28;19904;-79
2023/06/23 05:44:36;;;;;;;;;;;37.60;75.40;;;;;;5093133;28;19991;-80
2023/06/23 05:47:04;;;;;;;;;;;38.30;75.20;;;;;;5092990;28;19904;-79
2023/06/23 05:49:35;;;;;;;;;;;39.20;75.20;;;;;;5074921;28;19904;-78
2023/06/23 05:52:02;;;;;;;;;;;39.20;71.60;;;;;;5093454;28;19912;-79
2023/06/23 05:54:30;;;;;;;;;;;38.60;75.00;;;;;;5075364;28;19904;-78
2023/06/23 05:57:00;;;;;;;;;;;38.80;75.60;;;;;;5074480;28;20216;-78
2023/06/23 05:59:36;;;;;;;;;;;39.80;73.90;;;;;;5074541;28;19908;-78
2023/06/23 06:02:04;;;;;;;;;;;39.80;71.50;;;;;;5092650;28;20011;-78
2023/06/23 06:04:31;;;;;;;;;;;40.00;73.40;;;;;;5092907;28;20045;-78
2023/06/23 06:06:58;;;;;;;;;;;40.50;72.70;;;;;;5092696;28;19912;-79
2023/06/23 06:09:26;;;;;;;;;;;40.70;72.10;;;;;;5092418;28;19955;-79
2023/06/23 06:11:54;;;;;;;;;;;40.60;71.90;;;;;;5092423;28;19904;-78
2023/06/23 06:14:20;;;;;;;;;;;41.20;69.70;;;;;;5074225;28;19911;-77
2023/06/23 06:16:47;;;;;;;;;;;40.60;70.20;;;;;;5072106;28;19946;-77
2023/06/23 06:19:14;;;;;;;;;;;40.70;72.10;;;;;;5071528;28;19916;-77
2023/06/23 06:21:40;;;;;;;;;;;41.70;71.20;;;;;;5105218;28;19908;-77
2023/06/23 06:24:09;;;;;;;;;;;41.70;69.80;;;;;;5072226;28;19930;-75
2023/06/23 06:26:35;;;;;;;;;;;42.60;69.70;;;;;;5072613;28;19911;-78
2023/06/23 06:29:03;;;;;;;;;;;43.20;69.30;;;;;;5072757;28;19905;-77
2023/06/23 06:31:30;;;;;;;;;;;43.30;67.80;;;;;;5072932;28;20405;-77
2023/06/23 06:33:59;;;;;;;;;;;43.20;67.10;;;;;;5072549;28;20357;-78
2023/06/23 06:36:25;;;;;;;;;;;42.10;67.60;;;;;;5071829;28;19998;-78
2023/06/23 06:38:51;;;;;;;;;;;41.80;67.10;;;;;;5072451;28;19906;-77
2023/06/23 06:41:17;;;;;;;;;;;42.00;67.10;;;;;;5072752;28;20205;-77
2023/06/23 06:43:44;;;;;;;;;;;42.50;66.20;;;;;;5072232;28;19930;-78
2023/06/23 06:46:11;;;;;;;;;;;42.90;66.20;;;;;;5072124;28;19911;-78
2023/06/23 06:48:39;;;;;;;;;;;42.70;66.60;;;;;;5072024;28;19908;-77
2023/06/23 06:51:05;;;;;;;;;;;42.80;66.60;;;;;;5071857;28;19904;-78
2023/06/23 06:53:31;;;;;;;;;;;43.50;65.50;;;;;;5072955;28;19904;-77
2023/06/23 06:55:57;;;;;;;;;;;43.10;65.30;;;;;;5076378;28;19920;-77
2023/06/23 06:58:23;;;;;;;;;;;42.40;65.50;;;;;;5075888;28;19905;-77
2023/06/23 07:00:49;;;;;;;;;;;42.60;66.00;;;;;;5075888;28;19962;-77
2023/06/23 07:03:15;;;;;;;;;;;42.80;66.10;;;;;;5076148;28;20009;-79
2023/06/23 07:05:41;;;;;;;;;;;43.20;65.50;;;;;;5075768;28;19927;-78
2023/06/23 07:08:07;;;;;;;;;;;42.90;65.20;;;;;;5075713;28;20356;-78
2023/06/23 07:10:34;;;;;;;;;;;42.30;65.40;;;;;;5075650;28;19911;-79
2023/06/23 07:13:00;;;;;;;;;;;42.40;65.80;;;;;;5074315;28;20003;-78
2023/06/23 07:15:26;;;;;;;;;;;42.60;65.60;;;;;;5084388;28;19939;-78
2023/06/23 07:17:52;;;;;;;;;;;41.20;66.60;;;;;;5096153;28;19935;-79
2023/06/23 07:20:18;;;;;;;;;;;41.60;67.00;;;;;;5095388;28;20009;-78
2023/06/23 07:22:44;;;;;;;;;;;41.20;67.60;;;;;;5096039;28;19911;-78
2023/06/23 07:25:10;;;;;;;;;;;41.40;68.20;;;;;;5077313;28;20375;-78
2023/06/23 07:27:36;;;;;;;;;;;41.40;67.90;;;;;;5095973;28;20306;-78
2023/06/23 07:30:03;;;;;;;;;;;40.20;69.30;;;;;;5095257;28;20392;-78
2023/06/23 07:32:29;;;;;;;;;;;40.60;69.10;;;;;;5095176;28;19910;-78
2023/06/23 07:34:55;;;;;;;;;;;40.10;69.60;;;;;;5095181;28;19904;-77
2023/06/23 07:37:21;;;;;;;;;;;39.10;70.70;;;;;;5094939;28;20321;-78
2023/06/23 07:39:47;;;;;;;;;;;38.90;71.40;;;;;;5095101;28;19911;-77
2023/06/23 07:42:14;;;;;;;;;;;38.50;71.70;;;;;;5095153;28;20033;-78
2023/06/23 07:44:39;;;;;;;;;;;38.50;73.00;;;;;;5095196;28;19943;-79
2023/06/23 07:47:09;;;;;;;;;;;38.80;72.60;;;;;;5095476;28;19904;-78
2023/06/23 07:49:35;;;;;;;;;;;38.50;73.70;;;;;;5095317;28;19908;-79
2023/06/23 07:52:04;;;;;;;;;;;38.40;74.50;;;;;;5095097;28;19927;-78
2023/06/23 07:54:30;;;;;;;;;;;38.70;75.10;;;;;;5093878;28;20361;-77
2023/06/23 07:56:56;;;;;;;;;;;38.50;75.20;;;;;;5095346;28;19916;-76
2023/06/23 07:59:24;;;;;;;;;;;38.00;75.90;;;;;;5095171;28;19904;-77
2023/06/23 08:01:50;;;;;;;;;;;37.50;76.50;;;;;;5094903;28;20352;-77
2023/06/23 08:04:15;;;;;;;;;;;37.20;77.60;;;;;;5076090;28;20001;-78
2023/06/23 08:06:41;;;;;;;;;;;37.40;77.60;;;;;;5094780;28;19911;-78
2023/06/23 08:09:08;;;;;;;;;;;37.00;78.30;;;;;;5093465;28;20343;-77
2023/06/23 08:11:34;;;;;;;;;;;36.80;78.40;;;;;;5095165;28;19903;-77
2023/06/23 08:14:00;;;;;;;;;;;36.10;79.50;;;;;;5076322;28;19904;-78
2023/06/23 08:16:26;;;;;;;;;;;36.00;79.90;;;;;;5076022;28;19927;-76
2023/06/23 08:18:52;;;;;;;;;;;36.10;79.70;;;;;;5076442;28;19904;-77
2023/06/23 08:21:19;;;;;;;;;;;36.40;80.20;;;;;;5094249;28;19904;-77
2023/06/23 08:23:45;;;;;;;;;;;37.20;79.50;;;;;;5094807;28;19911;-78
2023/06/23 08:26:11;;;;;;;;;;;37.20;79.10;;;;;;5076217;28;20275;-78
2023/06/23 08:28:37;;;;;;;;;;;37.10;79.40;;;;;;5094816;28;19944;-78
2023/06/23 08:31:03;;;;;;;;;;;37.30;79.40;;;;;;5094413;28;20371;-78
2023/06/23 08:33:29;;;;;;;;;;;37.00;79.60;;;;;;5093787;28;19911;-77
2023/06/23 08:35:55;;;;;;;;;;;36.90;79.90;;;;;;5093901;28;19912;-78
2023/06/23 08:38:22;;;;;;;;;;;37.00;79.60;;;;;;5094143;28;19907;-79
2023/06/23 08:40:48;;;;;;;;;;;37.60;79.00;;;;;;5075837;28;19954;-79
2023/06/23 08:43:15;;;;;;;;;;;37.70;79.10;;;;;;5094721;28;20311;-78
2023/06/23 08:45:44;;;;;;;;;;;37.60;79.10;;;;;;5094004;28;19904;-77
2023/06/23 08:48:10;;;;;;;;;;;37.40;79.10;;;;;;5093782;28;19904;-77
2023/06/23 08:50:37;;;;;;;;;;;37.40;79.70;;;;;;5093853;28;19912;-78
2023/06/23 08:53:06;;;;;;;;;;;37.00;80.20;;;;;;5094080;28;19997;-78
2023/06/23 08:55:34;;;;;;;;;;;36.90;80.80;;;;;;5093593;28;19908;-78
2023/06/23 08:58:03;;;;;;;;;;;37.20;81.30;;;;;;5094110;28;19919;-79
2023/06/23 09:00:29;;;;;;;;;;;37.10;81.60;;;;;;5094075;28;19930;-74
2023/06/23 09:02:55;;;;;;;;;;;37.20;82.40;;;;;;5094290;28;19904;-74
2023/06/23 09:05:21;;;;;;;;;;;37.10;82.30;;;;;;5093672;28;20276;-74
2023/06/23 09:07:47;;;;;;;;;;;37.00;82.60;;;;;;5093850;28;19908;-73
2023/06/23 09:10:13;;;;;;;;;;;37.30;82.40;;;;;;5093650;28;20297;-73
2023/06/23 09:12:47;;;;;;;;;;;36.60;83.20;;;;;;5093855;28;19904;-75
2023/06/23 09:15:13;;;;;;;;;;;36.40;83.40;;;;;;5093376;28;19983;-74
2023/06/23 09:17:39;;;;;;;;;;;36.60;83.50;;;;;;5092998;28;19904;-75
2023/06/23 09:20:05;;;;;;;;;;;36.70;82.40;;;;;;5093343;28;20295;-74
2023/06/23 09:22:32;;;;;;;;;;;37.00;81.90;;;;;;5093945;28;20383;-74
2023/06/23 09:24:58;;;;;;;;;;;37.50;81.40;;;;;;5093684;28;19904;-74
2023/06/23 09:27:40;;;;;;;;;;;37.40;80.70;;;;;;5093541;28;19965;-74
2023/06/23 09:30:06;;;;;;;;;;;37.30;81.20;;;;;;5093732;28;19911;-75
2023/06/23 09:32:32;;;;;;;;;;;36.60;83.10;;;;;;5093380;28;19911;-72
2023/06/23 09:34:58;;;;;;;;;;;36.60;82.90;;;;;;5074807;28;19904;-73
2023/06/23 09:37:24;;;;;;;;;;;36.70;83.10;;;;;;5093604;28;19911;-73
2023/06/23 09:39:54;;;;;;;;;;;35.90;83.90;;;;;;5093002;28;20255;-73
2023/06/23 09:42:22;;;;;;;;;;;36.10;84.50;;;;;;5074889;28;19904;-73
2023/06/23 09:44:48;;;;;;;;;;;36.00;85.30;;;;;;5093388;28;20267;-73
2023/06/23 09:47:15;;;;;;;;;;;36.20;86.10;;;;;;5092979;28;19908;-74
2023/06/23 09:49:42;;;;;;;;;;;36.00;85.30;;;;;;5092684;28;19995;-74
2023/06/23 09:52:09;;;;;;;;;;;35.90;86.70;;;;;;5093083;28;19904;-73
2023/06/23 09:54:41;;;;;;;;;;;35.60;87.30;;;;;;5074478;28;19999;-74
2023/06/23 09:57:08;;;;;;;;;;;35.10;90.60;;;;;;5092902;28;19919;-74
2023/06/23 09:59:38;;;;;;;;;;;35.00;91.30;;;;;;5092623;28;20372;-73
2023/06/23 10:02:05;;;;;;;;;;;35.50;91.60;;;;;;5092567;28;19908;-74
2023/06/23 10:04:31;;;;;;;;;;;35.70;91.60;;;;;;5092559;28;20279;-73
2023/06/23 10:06:58;;;;;;;;;;;35.80;92.10;;;;;;5092466;28;19915;-73
2023/06/23 10:09:25;;;;;;;;;;;35.60;91.90;;;;;;5092834;28;19958;-74
2023/06/23 10:11:51;;;;;;;;;;;35.30;92.60;;;;;;5092831;28;19904;-73
2023/06/23 10:14:18;;;;;;;;;;;35.40;92.20;;;;;;5074310;28;19908;-74
2023/06/23 10:16:44;;;;;;;;;;;35.00;92.40;;;;;;5074254;28;19926;-74
2023/06/23 10:19:11;;;;;;;;;;;35.20;92.10;;;;;;5091096;28;20257;-74
2023/06/23 10:21:37;;;;;;;;;;;35.30;92.30;;;;;;5092198;28;20279;-74
2023/06/23 10:24:17;;;;;;;;;;;34.90;92.10;;;;;;5092473;28;19926;-75
2023/06/23 10:26:45;;;;;;;;;;;34.60;92.90;;;;;;5092278;28;19970;-74
2023/06/23 10:29:15;;;;;;;;;;;34.60;90.80;;;;;;5078016;28;19904;-74
2023/06/23 10:31:41;;;;;;;;;;;34.80;90.60;;;;;;5078372;28;19904;-75
2023/06/23 10:34:10;;;;;;;;;;;35.00;92.60;;;;;;5096400;28;19962;-74
2023/06/23 10:36:39;;;;;;;;;;;34.90;93.60;;;;;;5096323;28;19922;-74
2023/06/23 10:39:05;;;;;;;;;;;34.50;93.70;;;;;;5095328;28;19951;-74
2023/06/23 10:41:33;;;;;;;;;;;34.00;94.80;;;;;;5078397;28;19973;-74
2023/06/23 10:43:59;;;;;;;;;;;33.60;96.60;;;;;;5096423;28;20268;-74
2023/06/23 10:46:25;;;;;;;;;;;33.10;97.50;;;;;;5096572;28;20360;-74
2023/06/23 10:48:51;;;;;;;;;;;33.10;97.80;;;;;;5078010;28;19991;-73
2023/06/23 10:51:17;;;;;;;;;;;33.20;98.30;;;;;;5096145;28;19999;-74
2023/06/23 10:53:46;;;;;;;;;;;33.50;97.00;;;;;;5096080;28;19940;-74
2023/06/23 10:56:29;;;;;;;;;;;33.90;97.30;;;;;;5096088;28;19914;-74
2023/06/23 10:58:55;;;;;;;;;;;34.00;97.50;;;;;;5096439;28;19985;-74
2023/06/23 11:01:20;;;;;;;;;;;33.90;96.90;;;;;;5096102;28;19907;-74
2023/06/23 11:03:50;;;;;;;;;;;34.30;97.00;;;;;;5094161;28;19994;-74
2023/06/23 11:06:24;;;;;;;;;;;33.80;97.80;;;;;;5095693;28;19904;-73
2023/06/23 11:08:50;;;;;;;;;;;33.50;98.10;;;;;;5096164;28;19943;-74
2023/06/23 11:11:30;;;;;;;;;;;33.80;98.70;;;;;;5077595;28;20334;-74
2023/06/23 11:13:56;;;;;;;;;;;33.80;99.00;;;;;;5096094;28;19904;-75
2023/06/23 11:16:28;;;;;;;;;;;33.30;99.90;;;;;;5095708;28;19920;-74
2023/06/23 11:18:54;;;;;;;;;;;33.30;99.90;;;;;;5094487;28;20323;-74
2023/06/23 11:21:27;;;;;;;;;;;33.10;99.90;;;;;;5077100;28;20041;-73
2023/06/23 11:24:11;;;;;;;;;;;32.90;99.90;;;;;;5094297;28;19904;-74
2023/06/23 11:26:49;;;;;;;;;;;33.10;99.90;;;;;;5095564;28;19907;-73
2023/06/23 11:29:17;;;;;;;;;;;32.40;99.90;;;;;;5096078;28;19920;-74
2023/06/23 11:32:01;;;;;;;;;;;32.70;99.90;;;;;;5095523;28;19908;-74
2023/06/23 11:34:27;;;;;;;;;;;32.70;99.90;;;;;;5095117;28;19958;-73
2023/06/23 11:36:55;;;;;;;;;;;32.50;99.90;;;;;;5094965;28;20363;-73
2023/06/23 11:39:22;;;;;;;;;;;33.00;99.90;;;;;;5094795;28;19903;-73
2023/06/23 11:41:48;;;;;;;;;;;32.90;99.90;;;;;;5095714;28;19991;-74
2023/06/23 11:44:16;;;;;;;;;;;32.90;99.90;;;;;;5095621;28;20016;-74
2023/06/23 11:46:42;;;;;;;;;;;32.90;99.90;;;;;;5077133;28;20007;-73
2023/06/23 11:49:11;;;;;;;;;;;33.20;99.90;;;;;;5095899;28;19951;-74
2023/06/23 11:51:37;;;;;;;;;;;33.00;99.90;;;;;;5095158;28;20062;-74
2023/06/23 11:54:05;;;;;;;;;;;33.20;99.90;;;;;;5095115;28;20086;-74
2023/06/23 11:56:32;;;;;;;;;;;32.90;99.90;;;;;;5095081;28;20014;-74
2023/06/23 11:59:01;;;;;;;;;;;33.10;99.90;;;;;;5095547;28;19983;-73
2023/06/23 12:01:26;;;;;;;;;;;33.00;99.90;;;;;;5076704;28;19976;-72
2023/06/23 12:03:55;;;;;;;;;;;33.20;99.90;;;;;;5095109;28;19954;-73
2023/06/23 12:06:23;;;;;;;;;;;33.50;99.90;;;;;;5094860;28;19982;-73
2023/06/23 12:08:50;;;;;;;;;;;32.90;99.90;;;;;;5094590;28;20370;-74
2023/06/23 12:11:17;;;;;;;;;;;32.80;99.90;;;;;;5094369;28;19904;-73
2023/06/23 12:13:45;;;;;;;;;;;32.90;99.90;;;;;;5095034;28;19998;-73
2023/06/23 12:16:12;;;;;;;;;;;32.90;99.90;;;;;;5094167;28;19922;-73
2023/06/23 12:18:44;;;;;;;;;;;32.50;99.90;;;;;;5094242;28;20352;-73
2023/06/23 12:21:10;;;;;;;;;;;32.70;99.90;;;;;;5094378;28;19963;-73
2023/06/23 12:23:36;;;;;;;;;;;32.30;99.90;;;;;;5094464;28;20356;-73
2023/06/23 12:26:03;;;;;;;;;;;32.70;99.90;;;;;;5094271;28;19947;-73
2023/06/23 12:28:29;;;;;;;;;;;32.70;99.90;;;;;;5094217;28;19915;-74
2023/06/23 12:30:55;;;;;;;;;;;32.70;99.90;;;;;;5094286;28;19976;-73
2023/06/23 12:33:22;;;;;;;;;;;32.50;99.90;;;;;;5094346;28;19999;-74
2023/06/23 12:36:01;;;;;;;;;;;32.50;99.90;;;;;;5093903;28;19908;-73
2023/06/23 12:38:28;;;;;;;;;;;32.60;99.90;;;;;;5094232;28;19915;-73
2023/06/23 12:40:54;;;;;;;;;;;32.50;99.90;;;;;;5094792;28;19915;-74
2023/06/23 12:43:21;;;;;;;;;;;32.30;99.90;;;;;;5094219;28;20016;-74
2023/06/23 12:45:48;;;;;;;;;;;32.70;99.90;;;;;;5094430;28;19908;-74
2023/06/23 12:48:14;;;;;;;;;;;32.90;99.90;;;;;;5094153;28;19980;-73
2023/06/23 12:50:43;;;;;;;;;;;32.80;99.90;;;;;;5093304;28;19908;-73
2023/06/23 12:53:09;;;;;;;;;;;32.60;99.90;;;;;;5094092;28;19904;-73
2023/06/23 12:55:35;;;;;;;;;;;32.60;99.90;;;;;;5093963;28;19908;-74
2023/06/23 12:58:01;;;;;;;;;;;33.00;99.90;;;;;;5094377;28;19994;-73
2023/06/23 13:00:27;;;;;;;;;;;32.90;99.90;;;;;;5094160;28;19919;-73
2023/06/23 13:02:53;;;;;;;;;;;33.00;99.90;;;;;;5094155;28;19904;-73
2023/06/23 13:05:20;;;;;;;;;;;32.90;99.90;;;;;;5093349;28;19904;-74
2023/06/23 13:07:46;;;;;;;;;;;33.10;99.90;;;;;;5075474;28;19943;-73
2023/06/23 13:10:12;;;;;;;;;;;33.30;99.90;;;;;;5094067;28;19904;-74
2023/06/23 13:12:47;;;;;;;;;;;33.30;99.90;;;;;;5090608;27;20245;-73
2023/06/23 13:15:13;;;;;;;;;;;33.40;99.90;;;;;;5090274;28;20480;-74
2023/06/23 13:17:40;;;;;;;;;;;33.70;99.90;;;;;;5090554;28;19912;-73
2023/06/23 13:20:06;;;;;;;;;;;34.10;99.90;;;;;;5089877;28;19991;-73
2023/06/23 13:22:32;;;;;;;;;;;34.00;99.90;;;;;;5088492;28;20283;-73
2023/06/23 13:24:58;;;;;;;;;;;33.80;99.90;;;;;;5089935;28;20423;-73
2023/06/23 13:27:24;;;;;;;;;;;33.90;99.90;;;;;;5090354;28;19948;-73
2023/06/23 13:29:51;;;;;;;;;;;34.10;99.90;;;;;;5089963;28;19995;-74
2023/06/23 13:32:18;;;;;;;;;;;34.10;99.90;;;;;;5089684;28;20467;-74
2023/06/23 13:34:44;;;;;;;;;;;34.10;99.90;;;;;;5088436;28;19909;-75
2023/06/23 13:37:10;;;;;;;;;;;34.30;99.90;;;;;;5089574;28;20105;-74
2023/06/23 13:39:37;;;;;;;;;;;34.10;99.90;;;;;;5088491;28;20407;-74
2023/06/23 13:42:03;;;;;;;;;;;34.30;99.90;;;;;;5089951;28;20004;-74
2023/06/23 13:44:29;;;;;;;;;;;34.10;99.90;;;;;;5089708;28;19967;-75
2023/06/23 13:46:55;;;;;;;;;;;34.20;99.90;;;;;;5089613;28;19952;-74
2023/06/23 13:49:20;;;;;;;;;;;34.20;99.90;;;;;;5089825;28;19908;-74
2023/06/23 13:51:46;;;;;;;;;;;33.90;99.90;;;;;;5087947;28;19920;-74
2023/06/23 13:54:12;;;;;;;;;;;33.60;99.90;;;;;;5089632;28;19944;-74
2023/06/23 13:56:38;;;;;;;;;;;34.00;99.90;;;;;;5089553;28;19908;-75
2023/06/23 13:59:04;;;;;;;;;;;34.30;99.90;;;;;;5089715;28;19999;-74
2023/06/23 14:01:30;;;;;;;;;;;34.60;99.90;;;;;;5089492;28;19974;-75
2023/06/23 14:03:55;;;;;;;;;;;35.00;99.90;;;;;;5089407;28;19916;-75
2023/06/23 14:06:22;;;;;;;;;;;35.10;99.90;;;;;;5089230;28;20007;-76
2023/06/23 14:08:48;;;;;;;;;;;35.00;99.90;;;;;;5089451;28;20416;-75
2023/06/23 14:11:17;;;;;;;;;;;35.10;99.90;;;;;;5089661;28;20365;-75
2023/06/23 14:13:42;;;;;;;;;;;35.40;99.90;;;;;;5089691;28;19918;-74
2023/06/23 14:16:12;;;;;;;;;;;35.40;99.90;;;;;;5089310;28;20382;-74
2023/06/23 14:18:38;;;;;;;;;;;35.60;99.90;;;;;;5089045;28;19948;-73